createdAt,value
2018-07-05T00:00:41.607Z,14.00
2018-07-05T00:03:28.042Z,14.00
2018-07-05T00:06:14.285Z,14.67
2018-07-05T00:09:00.685Z,14.47
2018-07-05T00:11:47.053Z,12.80
2018-07-05T00:14:33.462Z,12.77
2018-07-05T00:17:19.770Z,14.97
2018-07-05T00:20:06.128Z,13.10
2018-07-05T00:22:52.485Z,13.13
2018-07-05T00:25:38.881Z,14.20
2018-07-05T00:28:25.282Z,13.70
2018-07-05T00:31:11.638Z,14.93
2018-07-05T00:33:58.033Z,15.20
2018-07-05T00:36:44.361Z,14.70
2018-07-05T00:39:30.757Z,15.10
2018-07-05T00:42:17.121Z,15.10
2018-07-05T00:45:03.585Z,14.77
2018-07-05T00:47:49.935Z,15.23
2018-07-05T00:50:36.302Z,14.70
2018-07-05T00:53:22.649Z,14.40
2018-07-05T00:56:09.048Z,15.30
2018-07-05T00:58:55.452Z,15.70
2018-07-05T01:01:41.782Z,15.57
2018-07-05T01:04:28.209Z,13.87
2018-07-05T01:07:14.539Z,15.50
2018-07-05T01:10:00.956Z,16.50
2018-07-05T01:12:47.227Z,17.07
2018-07-05T01:15:33.674Z,16.80
2018-07-05T01:18:20.043Z,16.27
2018-07-05T01:21:06.449Z,16.60
2018-07-05T01:23:52.834Z,17.83
2018-07-05T01:26:39.189Z,21.10
2018-07-05T01:29:25.612Z,19.47
2018-07-05T01:32:11.982Z,19.77
2018-07-05T01:34:58.366Z,18.60
2018-07-05T01:37:44.745Z,19.30
2018-07-05T01:40:31.216Z,19.17
2018-07-05T01:43:17.465Z,20.20
2018-07-05T01:46:03.856Z,20.60
2018-07-05T01:48:50.247Z,19.43
2018-07-05T01:51:36.605Z,19.30
2018-07-05T01:54:23.000Z,17.90
2018-07-05T01:57:09.351Z,18.80
2018-07-05T01:59:55.729Z,19.77
2018-07-05T02:02:42.097Z,19.90
2018-07-05T02:05:28.424Z,21.73
2018-07-05T02:08:14.906Z,18.97
2018-07-05T02:11:01.193Z,21.50
2018-07-05T02:13:47.568Z,21.50
2018-07-05T02:16:33.953Z,21.40
2018-07-05T02:19:20.289Z,21.40
2018-07-05T02:22:06.653Z,23.13
2018-07-05T02:24:53.097Z,21.00
2018-07-05T02:27:39.447Z,22.03
2018-07-05T02:30:25.837Z,20.87
2018-07-05T02:33:12.045Z,21.63
2018-07-05T02:35:58.414Z,21.23
2018-07-05T02:38:48.905Z,23.37
2018-07-05T02:41:35.084Z,21.83
2018-07-05T02:44:21.294Z,21.73
2018-07-05T02:47:07.643Z,23.07
2018-07-05T02:49:53.989Z,22.77
2018-07-05T02:52:40.398Z,26.00
2018-07-05T02:55:26.823Z,26.13
2018-07-05T02:58:13.231Z,26.73
2018-07-05T03:00:59.580Z,24.40
2018-07-05T03:03:45.917Z,25.83
2018-07-05T03:06:32.285Z,24.83
2018-07-05T03:09:18.724Z,26.30
2018-07-05T03:12:05.111Z,25.10
2018-07-05T03:14:51.549Z,23.17
2018-07-05T03:17:37.957Z,24.40
2018-07-05T03:20:24.329Z,24.90
2018-07-05T03:23:10.711Z,22.90
2018-07-05T03:25:57.118Z,23.27
2018-07-05T03:28:43.462Z,23.97
2018-07-05T03:31:29.824Z,21.60
2018-07-05T03:34:16.201Z,22.00
2018-07-05T03:37:02.645Z,21.00
2018-07-05T03:39:49.016Z,23.60
2018-07-05T03:42:35.274Z,21.20
2018-07-05T03:45:21.626Z,23.77
2018-07-05T03:48:08.201Z,22.20
2018-07-05T03:50:54.542Z,23.67
2018-07-05T03:53:42.430Z,23.97
2018-07-05T03:56:28.777Z,26.43
2018-07-05T03:59:15.201Z,24.77
2018-07-05T04:02:01.598Z,23.30
2018-07-05T04:04:48.003Z,29.07
2018-07-05T04:07:34.407Z,29.97
2018-07-05T04:10:20.697Z,28.37
2018-07-05T04:13:06.957Z,31.50
2018-07-05T04:15:53.311Z,30.87
2018-07-05T04:18:39.706Z,31.90
2018-07-05T04:21:26.163Z,29.53
2018-07-05T04:24:12.398Z,31.30
2018-07-05T04:26:58.808Z,34.87
2018-07-05T04:29:45.207Z,35.90
2018-07-05T04:32:31.567Z,35.00
2018-07-05T04:35:17.935Z,33.37
2018-07-05T04:38:04.305Z,29.90
2018-07-05T04:40:50.719Z,32.97
2018-07-05T04:43:37.051Z,30.53
2018-07-05T04:46:23.418Z,30.33
2018-07-05T04:49:09.810Z,29.63
2018-07-05T04:51:56.156Z,28.80
2018-07-05T04:54:42.448Z,28.57
2018-07-05T04:57:28.815Z,27.83
2018-07-05T05:00:15.193Z,25.07
2018-07-05T05:03:01.566Z,28.77
2018-07-05T05:05:47.864Z,27.87
2018-07-05T05:08:34.195Z,26.00
2018-07-05T05:11:20.442Z,24.60
2018-07-05T05:14:06.836Z,24.20
2018-07-05T05:16:53.217Z,24.93
2018-07-05T05:19:39.513Z,26.20
2018-07-05T05:22:25.871Z,24.67
2018-07-05T05:25:12.287Z,24.37
2018-07-05T05:27:58.480Z,22.13
2018-07-05T05:30:44.888Z,17.07
2018-07-05T05:33:31.160Z,18.70
2018-07-05T05:36:17.585Z,16.83
2018-07-05T05:39:04.972Z,15.13
2018-07-05T05:41:51.198Z,16.50
2018-07-05T05:44:37.537Z,16.80
2018-07-05T05:47:23.725Z,18.00
2018-07-05T05:50:10.178Z,18.00
2018-07-05T05:52:56.621Z,14.93
2018-07-05T05:55:42.880Z,14.90
2018-07-05T05:58:29.154Z,15.70
2018-07-05T06:01:15.652Z,13.90
2018-07-05T06:04:01.902Z,15.10
2018-07-05T06:06:48.324Z,25.37
2018-07-05T06:09:35.610Z,19.40
2018-07-05T06:12:21.965Z,20.90
2018-07-05T06:15:08.405Z,25.63
2018-07-05T06:17:54.748Z,22.60
2018-07-05T06:20:41.511Z,25.10
2018-07-05T06:23:28.650Z,23.53
2018-07-05T06:26:15.058Z,22.70
2018-07-05T06:29:01.463Z,20.97
2018-07-05T06:31:47.851Z,23.17
2018-07-05T06:34:34.263Z,24.93
2018-07-05T06:37:20.629Z,22.60
2018-07-05T06:40:06.998Z,23.50
2018-07-05T06:42:53.401Z,22.70
2018-07-05T06:45:39.809Z,22.63
2018-07-05T06:48:26.227Z,23.80
2018-07-05T06:51:12.609Z,22.90
2018-07-05T06:53:59.012Z,22.70
2018-07-05T06:56:45.378Z,21.80
2018-07-05T06:59:31.708Z,24.67
2018-07-05T07:02:18.118Z,23.10
2018-07-05T07:05:04.498Z,23.97
2018-07-05T07:07:50.890Z,20.10
2018-07-05T07:10:37.197Z,17.37
2018-07-05T07:13:23.573Z,19.80
2018-07-05T07:16:09.922Z,20.50
2018-07-05T07:18:56.315Z,19.77
2018-07-05T07:21:42.574Z,19.50
2018-07-05T07:24:29.010Z,18.10
2018-07-05T07:27:15.326Z,18.23
2018-07-05T07:30:01.689Z,18.13
2018-07-05T07:32:48.144Z,15.13
2018-07-05T07:35:34.508Z,17.03
2018-07-05T07:38:20.732Z,17.87
2018-07-05T07:41:07.140Z,17.33
2018-07-05T07:43:41.073Z,16.57
2018-07-05T07:46:08.897Z,17.33
2018-07-05T07:48:36.723Z,22.00
2018-07-05T07:51:04.550Z,21.93
2018-07-05T07:53:32.368Z,19.87
2018-07-05T07:56:00.200Z,23.57
2018-07-05T07:58:28.071Z,24.97
2018-07-05T08:00:55.973Z,22.57
2018-07-05T08:03:23.777Z,25.07
2018-07-05T08:05:51.652Z,26.33
2018-07-05T08:08:19.466Z,22.57
2018-07-05T08:10:47.266Z,21.00
2018-07-05T08:13:15.213Z,24.00
2018-07-05T08:15:43.205Z,24.00
2018-07-05T08:18:11.019Z,20.63
2018-07-05T08:20:38.908Z,19.73
2018-07-05T08:23:06.816Z,21.40
2018-07-05T08:25:34.657Z,21.37
2018-07-05T08:28:02.515Z,22.40
2018-07-05T08:30:30.312Z,21.30
2018-07-05T08:35:24.970Z,18.50
2018-07-05T08:37:52.845Z,17.20
2018-07-05T08:40:20.677Z,15.40
2018-07-05T08:42:48.829Z,20.33
2018-07-05T08:45:16.948Z,18.33
2018-07-05T08:47:45.020Z,18.47
2018-07-05T08:50:12.867Z,17.40
2018-07-05T08:52:40.690Z,17.50
2018-07-05T08:55:08.499Z,16.57
2018-07-05T08:57:36.379Z,19.20
2018-07-05T09:00:04.178Z,17.07
2018-07-05T09:02:32.090Z,18.23
2018-07-05T09:04:59.906Z,18.97
2018-07-05T09:07:27.787Z,18.03
2018-07-05T09:09:55.644Z,17.93
2018-07-05T09:12:23.505Z,16.93
2018-07-05T09:14:51.338Z,18.13
2018-07-05T09:17:19.139Z,17.23
2018-07-05T09:19:46.941Z,16.30
2018-07-05T09:22:14.746Z,19.03
2018-07-05T09:24:42.578Z,17.27
2018-07-05T09:27:10.385Z,17.30
2018-07-05T09:29:38.247Z,17.60
2018-07-05T09:32:06.041Z,15.27
2018-07-05T09:34:33.997Z,15.13
2018-07-05T09:37:01.828Z,18.07
2018-07-05T09:39:29.667Z,18.13
2018-07-05T09:41:57.493Z,18.07
2018-07-05T09:44:25.311Z,17.43
2018-07-05T09:46:53.143Z,18.57
2018-07-05T09:49:20.971Z,18.43
2018-07-05T09:51:48.786Z,18.57
2018-07-05T09:54:16.636Z,17.50
2018-07-05T09:56:44.471Z,17.10
2018-07-05T09:59:12.549Z,16.90
2018-07-05T10:01:40.350Z,14.27
2018-07-05T10:04:08.178Z,13.80
2018-07-05T10:06:36.001Z,15.20
2018-07-05T10:09:04.827Z,13.80
2018-07-05T10:11:32.653Z,14.20
2018-07-05T10:14:00.706Z,14.30
2018-07-05T10:16:28.784Z,14.23
2018-07-05T10:18:56.672Z,19.03
2018-07-05T10:21:24.482Z,18.23
2018-07-05T10:23:52.368Z,18.90
2018-07-05T10:26:20.177Z,22.90
2018-07-05T10:29:00.322Z,21.60
2018-07-05T10:31:47.152Z,27.83
2018-07-05T10:34:21.145Z,26.17
2018-07-05T10:36:48.949Z,26.87
2018-07-05T10:39:16.769Z,30.70
2018-07-05T10:41:57.290Z,31.80
2018-07-05T10:44:43.850Z,34.90
2018-07-05T10:47:31.406Z,32.40
2018-07-05T10:50:17.996Z,33.20
2018-07-05T10:53:04.579Z,32.40
2018-07-05T10:55:51.168Z,31.63
2018-07-05T10:58:37.764Z,34.00
2018-07-05T11:01:24.429Z,31.00
2018-07-05T11:04:10.981Z,29.23
2018-07-05T11:06:57.498Z,29.93
2018-07-05T11:09:44.020Z,30.00
2018-07-05T11:12:30.686Z,29.27
2018-07-05T11:15:17.350Z,28.87
2018-07-05T11:18:04.061Z,27.40
2018-07-05T11:20:50.681Z,26.40
2018-07-05T11:23:37.158Z,25.73
2018-07-05T11:26:23.824Z,29.20
2018-07-05T11:29:10.423Z,30.10
2018-07-05T11:31:57.072Z,32.00
2018-07-05T11:34:43.690Z,32.43
2018-07-05T11:37:30.318Z,34.17
2018-07-05T11:40:17.235Z,33.50
2018-07-05T11:43:03.705Z,35.60
2018-07-05T11:45:50.373Z,36.00
2018-07-05T11:48:37.031Z,37.53
2018-07-05T11:51:23.592Z,35.73
2018-07-05T11:54:10.351Z,32.70
2018-07-05T11:59:57.689Z,32.73
2018-07-05T12:02:44.404Z,32.37
2018-07-05T12:05:30.806Z,33.97
2018-07-05T12:08:17.282Z,36.60
2018-07-05T12:11:03.907Z,38.77
2018-07-05T12:13:50.511Z,38.70
2018-07-05T12:16:37.107Z,39.10
2018-07-05T12:19:23.635Z,38.17
2018-07-05T12:22:10.287Z,41.43
2018-07-05T12:24:56.842Z,40.50
2018-07-05T12:27:43.304Z,41.33
2018-07-05T12:30:30.113Z,38.73
2018-07-05T12:33:16.538Z,36.40
2018-07-05T12:36:02.838Z,37.50
2018-07-05T12:38:49.470Z,36.50
2018-07-05T12:41:37.018Z,36.13
2018-07-05T12:44:23.465Z,35.37
2018-07-05T12:47:09.984Z,34.70
2018-07-05T12:49:56.432Z,33.10
2018-07-05T12:52:43.579Z,34.47
2018-07-05T12:55:30.098Z,35.17
2018-07-05T12:58:16.703Z,37.17
2018-07-05T13:01:03.298Z,37.20
2018-07-05T13:03:49.885Z,35.53
2018-07-05T13:06:36.446Z,37.37
2018-07-05T13:09:22.972Z,38.43
2018-07-05T13:12:09.430Z,39.90
2018-07-05T13:14:56.017Z,37.30
2018-07-05T13:17:42.641Z,35.37
2018-07-05T13:20:29.031Z,34.73
2018-07-05T13:23:15.449Z,39.10
2018-07-05T13:26:02.034Z,37.80
2018-07-05T13:28:48.514Z,36.33
2018-07-05T13:31:35.074Z,36.10
2018-07-05T13:34:21.489Z,35.83
2018-07-05T13:37:07.932Z,38.70
2018-07-05T13:39:55.720Z,36.07
2018-07-05T13:42:42.228Z,35.77
2018-07-05T13:45:28.644Z,35.23
2018-07-05T13:48:15.087Z,37.30
2018-07-05T13:51:01.654Z,34.63
2018-07-05T13:53:48.172Z,36.93
2018-07-05T13:56:34.825Z,33.17
2018-07-05T13:59:21.489Z,33.83
2018-07-05T14:02:08.028Z,34.60
2018-07-05T14:04:54.756Z,30.43
2018-07-05T14:07:42.318Z,29.70
2018-07-05T14:10:28.897Z,26.43
2018-07-05T14:13:15.379Z,25.80
2018-07-05T14:16:01.990Z,25.20
2018-07-05T14:18:48.497Z,23.20
2018-07-05T14:21:35.081Z,25.03
2018-07-05T14:24:21.638Z,24.00
2018-07-05T14:27:08.217Z,23.03
2018-07-05T14:29:54.897Z,25.57
2018-07-05T14:32:41.290Z,24.13
2018-07-05T14:35:27.693Z,24.37
2018-07-05T14:38:14.044Z,27.63
2018-07-05T14:41:00.650Z,26.90
2018-07-05T14:43:47.549Z,26.53
2018-07-05T14:46:35.234Z,26.63
2018-07-05T14:49:21.774Z,25.27
2018-07-05T14:52:08.334Z,24.90
2018-07-05T14:54:54.693Z,25.40
2018-07-05T14:57:41.201Z,25.47
2018-07-05T15:00:27.696Z,26.00
2018-07-05T15:03:14.042Z,26.63
2018-07-05T15:06:00.506Z,26.83
2018-07-05T15:08:47.232Z,27.27
2018-07-05T15:11:33.509Z,26.70
2018-07-05T15:14:20.138Z,26.80
2018-07-05T15:17:06.545Z,23.90
2018-07-05T15:19:53.074Z,25.23
2018-07-05T15:22:39.624Z,25.63
2018-07-05T15:25:26.261Z,27.43
2018-07-05T15:28:12.865Z,28.60
2018-07-05T15:30:59.647Z,28.27
2018-07-05T15:33:46.129Z,30.40
2018-07-05T15:36:32.719Z,30.00
2018-07-05T15:39:19.187Z,26.67
2018-07-05T15:42:05.529Z,28.50
2018-07-05T15:44:51.919Z,30.97
2018-07-05T15:47:38.775Z,31.43
2018-07-05T15:50:25.301Z,30.63
2018-07-05T15:53:12.190Z,30.13
2018-07-05T15:55:58.733Z,30.73
2018-07-05T15:58:45.152Z,29.00
2018-07-05T16:01:31.626Z,31.10
2018-07-05T16:04:18.182Z,28.17
2018-07-05T16:07:04.717Z,31.20
2018-07-05T16:09:51.442Z,29.57
2018-07-05T16:12:37.965Z,26.20
2018-07-05T16:15:24.532Z,27.80
2018-07-05T16:18:11.302Z,24.03
2018-07-05T16:20:57.782Z,25.57
2018-07-05T16:23:44.395Z,24.47
2018-07-05T16:26:30.916Z,25.23
2018-07-05T16:29:17.432Z,23.37
2018-07-05T16:32:04.007Z,23.67
2018-07-05T16:34:50.525Z,23.73
2018-07-05T16:37:37.105Z,24.00
2018-07-05T16:40:23.557Z,22.90
2018-07-05T16:43:10.125Z,21.80
2018-07-05T16:45:56.829Z,20.83
2018-07-05T16:48:43.317Z,17.90
2018-07-05T16:51:29.912Z,18.13
2018-07-05T16:54:16.381Z,16.07
2018-07-05T16:57:03.059Z,15.27
2018-07-05T16:59:49.742Z,15.90
2018-07-05T17:02:36.314Z,15.27
2018-07-05T17:05:22.681Z,14.97
2018-07-05T17:08:09.254Z,15.30
2018-07-05T17:10:56.107Z,14.80
2018-07-05T17:13:42.665Z,13.37
2018-07-05T17:16:28.997Z,13.60
2018-07-05T17:19:15.634Z,11.83
2018-07-05T17:22:01.876Z,11.93
2018-07-05T17:24:48.589Z,11.73
2018-07-05T17:27:35.283Z,11.10
2018-07-05T17:30:21.802Z,10.43
2018-07-05T17:33:08.474Z,9.83
2018-07-05T17:35:55.069Z,11.90
2018-07-05T17:38:41.613Z,10.97
2018-07-05T17:41:28.090Z,11.03
2018-07-05T17:44:14.782Z,11.53
2018-07-05T17:47:01.413Z,12.63
2018-07-05T17:49:47.838Z,13.23
2018-07-05T17:52:34.349Z,13.80
2018-07-05T17:55:21.061Z,13.67
2018-07-05T17:58:07.586Z,13.40
2018-07-05T18:00:54.148Z,13.53
2018-07-05T18:03:40.740Z,13.23
2018-07-05T18:06:27.361Z,14.13
2018-07-05T18:09:13.859Z,13.80
2018-07-05T18:12:00.554Z,12.83
2018-07-05T18:14:46.949Z,12.93
2018-07-05T18:17:33.592Z,11.60
2018-07-05T18:20:20.196Z,11.20
2018-07-05T18:23:06.848Z,12.00
2018-07-05T18:25:53.289Z,13.77
2018-07-05T18:28:40.030Z,12.60
2018-07-05T18:31:26.437Z,13.17
2018-07-05T18:34:13.025Z,12.10
2018-07-05T18:36:59.612Z,11.90
2018-07-05T18:39:46.173Z,12.73
2018-07-05T18:42:32.733Z,11.70
2018-07-05T18:45:19.145Z,11.60
2018-07-05T18:48:05.749Z,11.27
2018-07-05T18:50:52.325Z,11.23
2018-07-05T18:53:38.837Z,11.30
2018-07-05T18:56:25.491Z,10.70
2018-07-05T18:59:12.080Z,10.77
2018-07-05T19:01:58.678Z,11.10
2018-07-05T19:04:45.169Z,11.63
2018-07-05T19:07:31.674Z,10.33
2018-07-05T19:10:18.449Z,9.80
2018-07-05T19:13:05.029Z,10.80
2018-07-05T19:15:51.525Z,10.67
2018-07-05T19:18:38.242Z,11.10
2018-07-05T19:21:24.834Z,11.43
2018-07-05T19:24:11.513Z,10.50
2018-07-05T19:26:58.074Z,10.10
2018-07-05T19:29:44.681Z,10.57
2018-07-05T19:32:31.257Z,10.70
2018-07-05T19:35:17.857Z,9.57
2018-07-05T19:38:04.423Z,9.20
2018-07-05T19:40:50.898Z,9.70
2018-07-05T19:43:37.368Z,9.20
2018-07-05T19:46:23.877Z,10.57
2018-07-05T19:49:10.579Z,9.77
2018-07-05T19:51:57.074Z,9.20
2018-07-05T19:54:43.585Z,9.90
2018-07-05T19:57:30.067Z,9.30
2018-07-05T20:00:16.641Z,9.77
2018-07-05T20:03:03.050Z,9.43
2018-07-05T20:05:49.392Z,8.20
2018-07-05T20:08:35.924Z,8.50
2018-07-05T20:11:22.509Z,9.03
2018-07-05T20:14:09.261Z,8.20
2018-07-05T20:16:55.717Z,9.30
2018-07-05T20:19:42.101Z,8.43
2018-07-05T20:22:28.545Z,8.83
2018-07-05T20:25:15.230Z,8.33
2018-07-05T20:28:01.819Z,8.90
2018-07-05T20:30:48.585Z,9.43
2018-07-05T20:33:35.314Z,9.00
2018-07-05T20:36:21.798Z,8.80
2018-07-05T20:39:08.789Z,9.17
2018-07-05T20:41:54.981Z,9.27
2018-07-05T20:44:41.421Z,9.10
2018-07-05T20:47:27.790Z,9.80
2018-07-05T20:50:14.297Z,10.00
2018-07-05T20:53:00.775Z,8.93
2018-07-05T20:55:47.239Z,9.13
2018-07-05T20:58:33.507Z,8.50
2018-07-05T21:01:20.817Z,9.23
2018-07-05T21:04:07.493Z,8.83
2018-07-05T21:06:54.102Z,9.80
2018-07-05T21:09:40.887Z,9.13
2018-07-05T21:12:27.541Z,9.53
2018-07-05T21:15:14.363Z,8.97
2018-07-05T21:18:01.196Z,10.87
2018-07-05T21:20:47.940Z,9.60
2018-07-05T21:23:34.123Z,7.53
2018-07-05T21:26:20.580Z,6.93
2018-07-05T21:29:06.970Z,6.30
2018-07-05T21:31:53.285Z,6.50
2018-07-05T21:34:39.677Z,6.03
2018-07-05T21:37:26.043Z,5.17
2018-07-05T21:40:12.473Z,5.57
2018-07-05T21:42:58.858Z,5.80
2018-07-05T21:45:45.249Z,5.67
2018-07-05T21:48:31.625Z,4.70
2018-07-05T21:51:18.059Z,4.73
2018-07-05T21:54:04.440Z,3.87
2018-07-05T21:56:50.834Z,4.30
2018-07-05T21:59:37.187Z,4.30
2018-07-05T22:02:23.571Z,4.00
2018-07-05T22:05:13.211Z,4.10
2018-07-05T22:07:59.489Z,4.30
2018-07-05T22:10:45.998Z,3.63
2018-07-05T22:13:32.457Z,3.50
2018-07-05T22:16:18.965Z,4.10
2018-07-05T22:19:10.607Z,3.90
2018-07-05T22:22:02.074Z,4.77
2018-07-05T22:26:56.785Z,4.17
2018-07-05T22:29:48.508Z,4.13
2018-07-05T22:32:34.770Z,5.20
2018-07-05T22:35:21.199Z,4.37
2018-07-05T22:38:07.537Z,5.17
2018-07-05T22:40:53.913Z,4.27
2018-07-05T22:43:41.318Z,4.03
2018-07-05T22:46:27.745Z,4.33
2018-07-05T22:49:14.145Z,4.67
2018-07-05T22:52:00.618Z,3.80
2018-07-05T22:54:46.982Z,4.73
2018-07-05T22:57:33.405Z,4.40
2018-07-05T23:00:19.699Z,4.50
2018-07-05T23:03:06.115Z,5.60
2018-07-05T23:05:52.503Z,4.37
2018-07-05T23:08:38.862Z,4.70
2018-07-05T23:11:25.249Z,5.10
2018-07-05T23:14:11.665Z,5.40
2018-07-05T23:16:58.176Z,5.37
2018-07-05T23:19:44.577Z,4.30
2018-07-05T23:22:30.876Z,5.27
2018-07-05T23:25:17.209Z,4.50
2018-07-05T23:28:03.547Z,5.20
2018-07-05T23:30:49.963Z,4.90
2018-07-05T23:33:36.302Z,4.33
2018-07-05T23:36:22.546Z,5.37
2018-07-05T23:39:08.899Z,4.83
2018-07-05T23:41:55.354Z,5.20
2018-07-05T23:44:41.748Z,5.90
2018-07-05T23:47:28.195Z,5.67
2018-07-05T23:50:14.466Z,5.10
2018-07-05T23:53:00.882Z,5.83
2018-07-05T23:55:47.322Z,5.17
2018-07-05T23:58:33.726Z,6.20
